createdAt,value
2023-05-19T00:00:47.080Z,0.00
2023-05-19T00:01:44.598Z,0.00
2023-05-19T00:02:44.683Z,0.00
2023-05-19T00:03:44.643Z,0.00
2023-05-19T00:04:44.577Z,0.00
2023-05-19T00:05:44.606Z,0.00
2023-05-19T00:06:44.534Z,0.00
2023-05-19T00:07:44.568Z,0.00
2023-05-19T00:08:44.540Z,0.00
2023-05-19T00:09:44.544Z,0.00
2023-05-19T00:10:44.564Z,0.00
2023-05-19T00:11:44.481Z,0.00
2023-05-19T00:12:44.513Z,0.00
2023-05-19T00:13:44.482Z,0.00
2023-05-19T00:14:44.479Z,0.00
2023-05-19T00:15:44.556Z,0.00
2023-05-19T00:16:44.442Z,0.00
2023-05-19T00:17:44.428Z,0.00
2023-05-19T00:18:44.461Z,0.00
2023-05-19T00:19:44.438Z,0.00
2023-05-19T00:20:44.404Z,0.00
2023-05-19T00:21:44.403Z,0.00
2023-05-19T00:22:44.386Z,0.00
2023-05-19T00:23:44.386Z,0.00
2023-05-19T00:24:44.371Z,0.00
2023-05-19T00:25:44.378Z,0.00
2023-05-19T00:26:44.315Z,0.00
2023-05-19T00:27:44.321Z,0.00
2023-05-19T00:28:44.364Z,0.00
2023-05-19T00:29:44.310Z,0.00
2023-05-19T00:30:44.337Z,0.00
2023-05-19T00:31:44.349Z,0.00
2023-05-19T00:32:44.345Z,0.00
2023-05-19T00:33:44.335Z,0.00
2023-05-19T00:34:44.244Z,0.00
2023-05-19T00:35:44.241Z,0.00
2023-05-19T00:36:44.254Z,0.00
2023-05-19T00:37:44.226Z,0.00
2023-05-19T00:38:44.240Z,0.00
2023-05-19T00:39:44.176Z,0.00
2023-05-19T00:40:44.192Z,0.00
2023-05-19T00:41:44.300Z,0.00
2023-05-19T00:42:44.205Z,0.00
2023-05-19T00:43:44.177Z,0.00
2023-05-19T00:44:44.195Z,0.00
2023-05-19T00:45:44.202Z,0.00
2023-05-19T00:46:44.224Z,0.00
2023-05-19T00:47:44.159Z,0.00
2023-05-19T00:48:44.090Z,0.00
2023-05-19T00:49:44.115Z,0.00
2023-05-19T00:50:44.061Z,0.00
2023-05-19T00:51:44.089Z,0.00
2023-05-19T00:52:44.053Z,0.00
2023-05-19T00:53:44.050Z,0.00
2023-05-19T00:54:44.041Z,0.00
2023-05-19T00:55:44.045Z,0.00
2023-05-19T00:56:44.017Z,0.00
2023-05-19T00:57:44.030Z,0.00
2023-05-19T00:58:44.005Z,0.00
2023-05-19T00:59:43.991Z,0.00
2023-05-19T01:00:44.075Z,0.00
2023-05-19T01:01:43.960Z,0.00
2023-05-19T01:02:44.061Z,0.00
2023-05-19T01:03:44.130Z,0.00
2023-05-19T01:04:43.941Z,0.00
2023-05-19T01:05:43.930Z,0.00
2023-05-19T01:06:43.923Z,0.00
2023-05-19T01:07:43.901Z,0.00
2023-05-19T01:08:43.911Z,0.00
2023-05-19T01:09:43.871Z,0.00
2023-05-19T01:10:43.861Z,0.00
2023-05-19T01:11:43.869Z,0.00
2023-05-19T01:12:43.860Z,0.00
2023-05-19T01:13:43.848Z,0.00
2023-05-19T01:14:43.853Z,0.00
2023-05-19T01:15:43.813Z,0.00
2023-05-19T01:16:43.867Z,0.00
2023-05-19T01:17:43.832Z,0.00
2023-05-19T01:18:43.804Z,0.00
2023-05-19T01:19:43.775Z,0.00
2023-05-19T01:20:43.839Z,0.00
2023-05-19T01:21:43.735Z,0.00
2023-05-19T01:22:43.802Z,0.00
2023-05-19T01:23:43.717Z,0.00
2023-05-19T01:24:43.742Z,0.00
2023-05-19T01:25:43.692Z,0.00
2023-05-19T01:26:43.689Z,0.00
2023-05-19T01:27:43.701Z,0.00
2023-05-19T01:28:43.682Z,0.00
2023-05-19T01:29:43.660Z,0.00
2023-05-19T01:30:43.654Z,0.00
2023-05-19T01:31:43.677Z,0.00
2023-05-19T01:32:43.730Z,0.00
2023-05-19T01:33:43.633Z,0.00
2023-05-19T01:34:43.616Z,0.00
2023-05-19T01:35:43.637Z,0.00
2023-05-19T01:36:43.625Z,0.00
2023-05-19T01:37:43.593Z,0.00
2023-05-19T01:38:43.576Z,0.00
2023-05-19T01:39:43.558Z,0.00
2023-05-19T01:40:43.574Z,0.00
2023-05-19T01:41:43.545Z,0.00
2023-05-19T01:42:43.532Z,0.00
2023-05-19T01:43:43.558Z,0.00
2023-05-19T01:44:43.505Z,0.00
2023-05-19T01:45:43.569Z,0.00
2023-05-19T01:46:43.500Z,0.00
2023-05-19T01:47:43.506Z,0.00
2023-05-19T01:48:43.487Z,0.00
2023-05-19T01:49:43.478Z,0.00
2023-05-19T01:50:43.611Z,0.00
2023-05-19T01:51:43.473Z,0.00
2023-05-19T01:52:43.421Z,0.00
2023-05-19T01:53:43.405Z,0.00
2023-05-19T01:54:43.403Z,0.00
2023-05-19T01:55:43.400Z,0.00
2023-05-19T01:56:43.405Z,0.00
2023-05-19T01:57:43.379Z,0.00
2023-05-19T01:58:43.388Z,0.00
2023-05-19T01:59:43.348Z,0.00
2023-05-19T02:00:43.336Z,0.00
2023-05-19T02:01:43.396Z,0.00
2023-05-19T02:02:43.389Z,0.00
2023-05-19T02:03:43.315Z,0.00
2023-05-19T02:04:43.425Z,0.00
2023-05-19T02:05:43.319Z,0.00
2023-05-19T02:06:43.376Z,0.00
2023-05-19T02:07:43.264Z,0.00
2023-05-19T02:08:43.267Z,0.00
2023-05-19T02:09:43.236Z,0.00
2023-05-19T02:10:43.279Z,0.00
2023-05-19T02:11:43.240Z,0.00
2023-05-19T02:12:43.268Z,0.00
2023-05-19T02:13:43.203Z,0.00
2023-05-19T02:14:43.195Z,0.00
2023-05-19T02:15:43.210Z,0.00
2023-05-19T02:16:43.171Z,0.00
2023-05-19T02:17:43.188Z,0.00
2023-05-19T02:18:43.182Z,0.00
2023-05-19T02:19:43.139Z,0.00
2023-05-19T02:20:43.266Z,0.00
2023-05-19T02:21:43.121Z,0.00
2023-05-19T02:22:43.105Z,0.00
2023-05-19T02:23:43.146Z,0.00
2023-05-19T02:24:43.086Z,0.00
2023-05-19T02:25:43.069Z,0.00
2023-05-19T02:26:43.061Z,0.00
2023-05-19T02:27:43.045Z,0.00
2023-05-19T02:28:43.063Z,0.00
2023-05-19T02:29:43.055Z,0.00
2023-05-19T02:30:43.011Z,0.00
2023-05-19T02:31:43.058Z,0.00
2023-05-19T02:32:43.023Z,0.00
2023-05-19T02:33:43.002Z,0.00
2023-05-19T02:34:42.994Z,0.00
2023-05-19T02:35:42.968Z,0.00
2023-05-19T02:36:42.986Z,0.00
2023-05-19T02:37:42.957Z,0.00
2023-05-19T02:38:42.928Z,0.00
2023-05-19T02:39:42.964Z,0.00
2023-05-19T02:40:42.912Z,0.00
2023-05-19T02:41:42.894Z,0.00
2023-05-19T02:42:42.887Z,0.00
2023-05-19T02:43:42.882Z,0.00
2023-05-19T02:44:42.890Z,0.00
2023-05-19T02:45:42.932Z,0.00
2023-05-19T02:46:42.957Z,0.00
2023-05-19T02:47:42.887Z,0.00
2023-05-19T02:48:42.826Z,0.00
2023-05-19T02:49:42.865Z,0.00
2023-05-19T02:50:42.809Z,0.00
2023-05-19T02:51:42.846Z,0.00
2023-05-19T02:52:42.820Z,0.00
2023-05-19T02:53:42.776Z,0.00
2023-05-19T02:54:42.764Z,0.00
2023-05-19T02:55:42.757Z,0.00
2023-05-19T02:56:42.763Z,0.00
2023-05-19T02:57:42.770Z,0.00
2023-05-19T02:58:42.724Z,0.00
2023-05-19T02:59:42.716Z,0.00
2023-05-19T03:00:42.709Z,0.00
2023-05-19T03:01:42.706Z,0.00
2023-05-19T03:02:42.745Z,0.00
2023-05-19T03:03:42.849Z,0.00
2023-05-19T03:04:42.671Z,0.00
2023-05-19T03:05:42.643Z,0.00
2023-05-19T03:06:42.656Z,0.00
2023-05-19T03:07:42.722Z,0.00
2023-05-19T03:08:42.628Z,0.00
2023-05-19T03:09:42.642Z,0.00
2023-05-19T03:10:42.604Z,0.00
2023-05-19T03:11:42.595Z,0.00
2023-05-19T03:12:42.574Z,0.00
2023-05-19T03:13:42.587Z,0.00
2023-05-19T03:14:42.573Z,0.00
2023-05-19T03:15:42.591Z,0.00
2023-05-19T03:16:42.767Z,0.00
2023-05-19T03:17:42.564Z,0.00
2023-05-19T03:18:42.561Z,0.00
2023-05-19T03:19:42.517Z,0.00
2023-05-19T03:20:42.532Z,0.00
2023-05-19T03:21:50.330Z,0.00
2023-05-19T03:22:42.468Z,0.00
2023-05-19T03:23:42.464Z,0.00
2023-05-19T03:24:42.566Z,0.00
2023-05-19T03:25:42.453Z,0.00
2023-05-19T03:26:42.477Z,0.00
2023-05-19T03:27:42.465Z,0.00
2023-05-19T03:28:42.503Z,0.00
2023-05-19T03:29:42.611Z,0.00
2023-05-19T03:30:43.220Z,0.00
2023-05-19T03:31:42.389Z,0.00
2023-05-19T03:32:42.539Z,0.00
2023-05-19T03:33:42.386Z,0.00
2023-05-19T03:34:42.345Z,0.00
2023-05-19T03:35:42.347Z,0.00
2023-05-19T03:36:42.327Z,0.00
2023-05-19T03:37:42.321Z,0.00
2023-05-19T03:38:42.377Z,0.00
2023-05-19T03:39:42.314Z,0.00
2023-05-19T03:40:42.396Z,0.00
2023-05-19T03:41:42.304Z,0.00
2023-05-19T03:42:42.250Z,5.62
2023-05-19T03:43:42.241Z,5.62
2023-05-19T03:44:42.237Z,5.62
2023-05-19T03:45:42.277Z,5.62
2023-05-19T03:46:47.191Z,5.62
2023-05-19T03:47:42.312Z,5.62
2023-05-19T03:48:42.303Z,5.62
2023-05-19T03:49:42.211Z,5.62
2023-05-19T03:50:42.208Z,5.62
2023-05-19T03:51:42.182Z,5.62
2023-05-19T03:52:42.289Z,5.62
2023-05-19T03:53:42.176Z,11.25
2023-05-19T03:54:42.127Z,11.25
2023-05-19T03:55:42.114Z,11.25
2023-05-19T03:56:42.133Z,11.25
2023-05-19T03:57:42.139Z,11.25
2023-05-19T03:58:42.146Z,16.88
2023-05-19T03:59:42.095Z,16.88
2023-05-19T04:00:42.074Z,16.88
2023-05-19T04:01:42.052Z,16.88
2023-05-19T04:02:42.120Z,16.88
2023-05-19T04:03:42.218Z,22.50
2023-05-19T04:04:42.096Z,22.50
2023-05-19T04:05:42.016Z,22.50
2023-05-19T04:06:42.037Z,22.50
2023-05-19T04:07:42.034Z,28.12
2023-05-19T04:08:42.001Z,33.75
2023-05-19T04:09:42.046Z,33.75
2023-05-19T04:10:41.976Z,39.38
2023-05-19T04:11:41.953Z,39.38
2023-05-19T04:12:41.976Z,39.38
2023-05-19T04:13:41.927Z,39.38
2023-05-19T04:14:42.008Z,39.38
2023-05-19T04:15:42.010Z,39.38
2023-05-19T04:16:41.906Z,45.00
2023-05-19T04:17:41.984Z,45.00
2023-05-19T04:18:41.920Z,45.00
2023-05-19T04:19:41.879Z,45.00
2023-05-19T04:20:41.877Z,45.00
2023-05-19T04:21:41.843Z,45.00
2023-05-19T04:22:41.858Z,45.00
2023-05-19T04:23:41.820Z,45.00
2023-05-19T04:24:41.815Z,45.00
2023-05-19T04:25:41.882Z,45.00
2023-05-19T04:26:41.809Z,50.62
2023-05-19T04:27:41.805Z,50.62
2023-05-19T04:28:41.814Z,50.62
2023-05-19T04:29:41.824Z,50.62
2023-05-19T04:30:41.784Z,50.62
2023-05-19T04:31:41.811Z,50.62
2023-05-19T04:32:41.771Z,50.62
2023-05-19T04:33:41.733Z,50.62
2023-05-19T04:34:41.701Z,50.62
2023-05-19T04:35:41.695Z,50.62
2023-05-19T04:36:41.993Z,56.25
2023-05-19T04:37:41.667Z,56.25
2023-05-19T04:38:41.666Z,61.88
2023-05-19T04:39:41.662Z,61.88
2023-05-19T04:40:42.615Z,67.50
2023-05-19T04:41:41.628Z,67.50
2023-05-19T04:42:41.653Z,67.50
2023-05-19T04:43:41.949Z,73.12
2023-05-19T04:44:41.636Z,73.12
2023-05-19T04:45:41.718Z,73.12
2023-05-19T04:46:41.669Z,73.12
2023-05-19T04:47:41.706Z,67.50
2023-05-19T04:48:41.767Z,67.50
2023-05-19T04:49:42.116Z,67.50
2023-05-19T04:50:41.671Z,67.50
2023-05-19T04:51:41.581Z,61.88
2023-05-19T04:52:41.511Z,56.25
2023-05-19T04:53:41.615Z,56.25
2023-05-19T04:54:42.120Z,61.88
2023-05-19T04:55:41.598Z,67.50
2023-05-19T04:56:41.476Z,67.50
2023-05-19T04:57:41.472Z,73.12
2023-05-19T04:58:42.090Z,73.12
2023-05-19T04:59:41.436Z,73.12
2023-05-19T05:00:41.669Z,78.75
2023-05-19T05:01:41.825Z,84.38
2023-05-19T05:02:41.527Z,84.38
2023-05-19T05:03:41.573Z,95.62
2023-05-19T05:04:41.426Z,95.62
2023-05-19T05:05:41.399Z,95.62
2023-05-19T05:06:41.441Z,95.62
2023-05-19T05:07:41.371Z,95.62
2023-05-19T05:08:41.356Z,95.62
2023-05-19T05:09:41.336Z,106.88
2023-05-19T05:10:41.413Z,112.50
2023-05-19T05:11:42.124Z,112.50
2023-05-19T05:12:41.312Z,118.12
2023-05-19T05:13:41.281Z,129.38
2023-05-19T05:14:41.283Z,129.38
2023-05-19T05:15:41.288Z,129.38
2023-05-19T05:16:41.300Z,140.62
2023-05-19T05:17:41.331Z,140.62
2023-05-19T05:18:44.338Z,140.62
2023-05-19T05:19:41.257Z,146.25
2023-05-19T05:20:41.269Z,146.25
2023-05-19T05:21:42.166Z,146.25
2023-05-19T05:22:41.430Z,140.62
2023-05-19T05:23:41.230Z,146.25
2023-05-19T05:24:41.162Z,151.88
2023-05-19T05:25:41.158Z,151.88
2023-05-19T05:26:41.164Z,151.88
2023-05-19T05:27:41.174Z,146.25
2023-05-19T05:28:41.118Z,140.62
2023-05-19T05:29:41.120Z,135.00
2023-05-19T05:30:41.111Z,129.38
2023-05-19T05:31:41.125Z,123.75
2023-05-19T05:32:41.201Z,129.38
2023-05-19T05:33:41.133Z,129.38
2023-05-19T05:34:41.067Z,135.00
2023-05-19T05:35:41.144Z,135.00
2023-05-19T05:36:41.044Z,135.00
2023-05-19T05:37:41.036Z,140.62
2023-05-19T05:38:41.015Z,146.25
2023-05-19T05:39:41.045Z,157.50
2023-05-19T05:40:41.026Z,157.50
2023-05-19T05:41:41.182Z,157.50
2023-05-19T05:42:40.974Z,157.50
2023-05-19T05:43:40.974Z,163.12
2023-05-19T05:44:40.967Z,163.12
2023-05-19T05:45:40.977Z,163.12
2023-05-19T05:46:45.651Z,157.50
2023-05-19T05:47:41.074Z,151.88
2023-05-19T05:48:40.992Z,151.88
2023-05-19T05:49:40.925Z,157.50
2023-05-19T05:50:40.896Z,157.50
2023-05-19T05:51:42.927Z,157.50
2023-05-19T05:52:40.912Z,157.50
2023-05-19T05:53:40.872Z,157.50
2023-05-19T05:54:40.864Z,163.12
2023-05-19T05:55:40.906Z,168.75
2023-05-19T05:56:40.976Z,168.75
2023-05-19T05:57:40.929Z,174.38
2023-05-19T05:58:40.986Z,180.00
2023-05-19T05:59:40.962Z,191.25
2023-05-19T06:00:41.048Z,196.88
2023-05-19T06:01:40.804Z,196.88
2023-05-19T06:02:40.826Z,185.62
2023-05-19T06:03:40.830Z,180.00
2023-05-19T06:04:40.776Z,168.75
2023-05-19T06:05:40.810Z,174.38
2023-05-19T06:06:40.745Z,180.00
2023-05-19T06:07:40.771Z,185.62
2023-05-19T06:08:40.758Z,180.00
2023-05-19T06:09:40.878Z,174.38
2023-05-19T06:10:40.798Z,174.38
2023-05-19T06:11:40.673Z,191.25
2023-05-19T06:12:40.735Z,196.88
2023-05-19T06:13:40.700Z,191.25
2023-05-19T06:14:40.656Z,180.00
2023-05-19T06:15:40.911Z,174.38
2023-05-19T06:16:40.920Z,174.38
2023-05-19T06:17:40.748Z,168.75
2023-05-19T06:18:40.787Z,168.75
2023-05-19T06:19:40.690Z,174.38
2023-05-19T06:20:40.605Z,174.38
2023-05-19T06:21:40.783Z,174.38
2023-05-19T06:22:40.562Z,174.38
2023-05-19T06:23:40.581Z,174.38
2023-05-19T06:24:40.619Z,180.00
2023-05-19T06:25:40.571Z,191.25
2023-05-19T06:26:40.619Z,196.88
2023-05-19T06:27:40.516Z,191.25
2023-05-19T06:28:41.162Z,185.62
2023-05-19T06:29:40.498Z,185.62
2023-05-19T06:30:40.696Z,196.88
2023-05-19T06:31:40.551Z,202.50
2023-05-19T06:32:40.558Z,202.50
2023-05-19T06:33:40.466Z,208.12
2023-05-19T06:34:40.519Z,213.75
2023-05-19T06:35:40.469Z,213.75
2023-05-19T06:36:40.613Z,213.75
2023-05-19T06:37:40.454Z,219.38
2023-05-19T06:38:40.389Z,230.62
2023-05-19T06:39:40.392Z,241.88
2023-05-19T06:40:40.417Z,241.88
2023-05-19T06:41:40.375Z,241.88
2023-05-19T06:42:40.411Z,253.12
2023-05-19T06:43:40.353Z,253.12
2023-05-19T06:44:40.325Z,253.12
2023-05-19T06:45:40.339Z,258.75
2023-05-19T06:46:51.391Z,275.62
2023-05-19T06:47:40.393Z,298.12
2023-05-19T06:48:40.383Z,315.00
2023-05-19T06:49:40.300Z,320.62
2023-05-19T06:50:40.343Z,315.00
2023-05-19T06:51:40.524Z,315.00
2023-05-19T06:52:41.294Z,326.25
2023-05-19T06:53:41.148Z,331.88
2023-05-19T06:54:40.256Z,320.62
2023-05-19T06:55:54.458Z,303.75
2023-05-19T06:56:41.243Z,281.25
2023-05-19T06:57:40.192Z,275.62
2023-05-19T06:58:40.313Z,270.00
2023-05-19T06:59:40.197Z,264.38
2023-05-19T07:00:40.190Z,264.38
2023-05-19T07:01:40.174Z,281.25
2023-05-19T07:02:40.261Z,292.50
2023-05-19T07:03:40.291Z,309.38
2023-05-19T07:04:40.345Z,337.50
2023-05-19T07:05:40.117Z,348.75
2023-05-19T07:06:40.134Z,337.50
2023-05-19T07:07:40.079Z,309.38
2023-05-19T07:08:40.255Z,298.12
2023-05-19T07:09:40.164Z,286.88
2023-05-19T07:10:40.184Z,281.25
2023-05-19T07:11:40.076Z,275.62
2023-05-19T07:12:40.100Z,286.88
2023-05-19T07:13:40.030Z,326.25
2023-05-19T07:14:40.025Z,360.00
2023-05-19T07:15:40.007Z,365.62
2023-05-19T07:16:40.061Z,354.38
2023-05-19T07:17:40.116Z,337.50
2023-05-19T07:18:40.000Z,315.00
2023-05-19T07:19:39.960Z,298.12
2023-05-19T07:20:39.971Z,286.88
2023-05-19T07:21:39.959Z,281.25
2023-05-19T07:22:40.145Z,286.88
2023-05-19T07:23:40.023Z,286.88
2023-05-19T07:24:40.012Z,286.88
2023-05-19T07:25:39.993Z,275.62
2023-05-19T07:26:39.884Z,270.00
2023-05-19T07:27:39.893Z,270.00
2023-05-19T07:28:41.618Z,275.62
2023-05-19T07:29:39.911Z,281.25
2023-05-19T07:30:39.843Z,298.12
2023-05-19T07:31:39.849Z,315.00
2023-05-19T07:32:39.898Z,326.25
2023-05-19T07:33:39.810Z,331.88
2023-05-19T07:34:39.833Z,337.50
2023-05-19T07:35:39.801Z,337.50
2023-05-19T07:36:39.898Z,343.12
2023-05-19T07:37:39.798Z,354.38
2023-05-19T07:38:39.788Z,365.62
2023-05-19T07:39:39.786Z,360.00
2023-05-19T07:40:39.759Z,354.38
2023-05-19T07:41:39.880Z,348.75
2023-05-19T07:42:39.766Z,348.75
2023-05-19T07:43:39.729Z,360.00
2023-05-19T07:44:40.055Z,382.50
2023-05-19T07:45:39.739Z,376.88
2023-05-19T07:46:39.882Z,376.88
2023-05-19T07:47:39.769Z,399.38
2023-05-19T07:48:39.773Z,416.25
2023-05-19T07:49:39.680Z,433.12
2023-05-19T07:50:39.658Z,433.12
2023-05-19T07:51:39.610Z,433.12
2023-05-19T07:52:39.677Z,416.25
2023-05-19T07:53:40.230Z,427.50
2023-05-19T07:54:39.592Z,450.00
2023-05-19T07:55:39.794Z,455.62
2023-05-19T07:56:39.731Z,421.88
2023-05-19T07:57:39.567Z,388.12
2023-05-19T07:58:39.536Z,388.12
2023-05-19T07:59:39.570Z,393.75
2023-05-19T08:00:39.567Z,376.88
2023-05-19T08:01:39.720Z,382.50
2023-05-19T08:02:39.757Z,421.88
2023-05-19T08:03:39.588Z,455.62
2023-05-19T08:04:39.569Z,455.62
2023-05-19T08:05:39.473Z,466.88
2023-05-19T08:06:39.458Z,455.62
2023-05-19T08:07:41.253Z,416.25
2023-05-19T08:08:39.517Z,376.88
2023-05-19T08:09:39.475Z,348.75
2023-05-19T08:10:39.408Z,343.12
2023-05-19T08:11:39.442Z,315.00
2023-05-19T08:12:39.444Z,281.25
2023-05-19T08:13:39.396Z,258.75
2023-05-19T08:14:39.383Z,230.62
2023-05-19T08:15:39.425Z,236.25
2023-05-19T08:16:50.268Z,270.00
2023-05-19T08:17:39.418Z,331.88
2023-05-19T08:18:39.345Z,416.25
2023-05-19T08:19:39.450Z,438.75
2023-05-19T08:20:39.338Z,376.88
2023-05-19T08:21:39.302Z,286.88
2023-05-19T08:22:48.205Z,264.38
2023-05-19T08:23:39.289Z,270.00
2023-05-19T08:24:39.271Z,292.50
2023-05-19T08:25:39.284Z,315.00
2023-05-19T08:26:39.331Z,337.50
2023-05-19T08:27:39.292Z,348.75
2023-05-19T08:28:39.381Z,376.88
2023-05-19T08:29:39.228Z,399.38
2023-05-19T08:30:39.305Z,399.38
2023-05-19T08:31:39.226Z,388.12
2023-05-19T08:32:39.263Z,376.88
2023-05-19T08:33:39.209Z,371.25
2023-05-19T08:34:39.204Z,376.88
2023-05-19T08:35:39.262Z,376.88
2023-05-19T08:36:39.303Z,315.00
2023-05-19T08:37:39.157Z,270.00
2023-05-19T08:38:39.153Z,264.38
2023-05-19T08:39:39.113Z,241.88
2023-05-19T08:40:39.114Z,241.88
2023-05-19T08:41:39.089Z,275.62
2023-05-19T08:42:39.160Z,309.38
2023-05-19T08:43:39.093Z,309.38
2023-05-19T08:44:39.148Z,303.75
2023-05-19T08:45:39.241Z,292.50
2023-05-19T08:46:43.774Z,292.50
2023-05-19T08:47:39.072Z,326.25
2023-05-19T08:48:39.013Z,360.00
2023-05-19T08:49:39.094Z,360.00
2023-05-19T08:50:39.019Z,326.25
2023-05-19T08:51:39.025Z,292.50
2023-05-19T08:52:39.107Z,258.75
2023-05-19T08:53:39.005Z,225.00
2023-05-19T08:54:38.982Z,191.25
2023-05-19T08:55:38.965Z,174.38
2023-05-19T08:56:39.023Z,174.38
2023-05-19T08:57:39.001Z,185.62
2023-05-19T08:58:38.943Z,202.50
2023-05-19T08:59:38.892Z,202.50
2023-05-19T09:00:38.994Z,208.12
2023-05-19T09:01:38.910Z,208.12
2023-05-19T09:02:50.301Z,213.75
2023-05-19T09:03:39.908Z,225.00
2023-05-19T09:04:38.899Z,241.88
2023-05-19T09:05:39.311Z,292.50
2023-05-19T09:06:38.951Z,348.75
2023-05-19T09:07:38.872Z,337.50
2023-05-19T09:08:38.984Z,281.25
2023-05-19T09:09:38.883Z,247.50
2023-05-19T09:10:38.778Z,247.50
2023-05-19T09:11:38.779Z,264.38
2023-05-19T09:12:38.774Z,281.25
2023-05-19T09:13:38.899Z,275.62
2023-05-19T09:14:38.791Z,292.50
2023-05-19T09:15:38.786Z,320.62
2023-05-19T09:16:38.885Z,348.75
2023-05-19T09:17:38.870Z,354.38
2023-05-19T09:18:38.740Z,399.38
2023-05-19T09:19:38.715Z,433.12
2023-05-19T09:20:38.660Z,433.12
2023-05-19T09:21:38.681Z,455.62
2023-05-19T09:22:38.689Z,528.75
2023-05-19T09:23:38.664Z,573.75
2023-05-19T09:24:38.670Z,568.12
2023-05-19T09:25:38.711Z,540.00
2023-05-19T09:26:38.663Z,511.88
2023-05-19T09:27:38.619Z,489.38
2023-05-19T09:28:38.675Z,461.25
2023-05-19T09:29:38.599Z,466.88
2023-05-19T09:30:38.555Z,489.38
2023-05-19T09:31:38.602Z,495.00
2023-05-19T09:32:38.630Z,511.88
2023-05-19T09:33:38.552Z,511.88
2023-05-19T09:34:38.572Z,506.25
2023-05-19T09:35:38.561Z,506.25
2023-05-19T09:36:38.541Z,506.25
2023-05-19T09:37:38.483Z,506.25
2023-05-19T09:38:38.495Z,523.12
2023-05-19T09:39:38.501Z,556.88
2023-05-19T09:40:38.504Z,551.25
2023-05-19T09:41:38.442Z,500.62
2023-05-19T09:42:38.461Z,455.62
2023-05-19T09:43:38.503Z,399.38
2023-05-19T09:44:38.465Z,326.25
2023-05-19T09:45:38.470Z,253.12
2023-05-19T09:46:43.307Z,230.62
2023-05-19T09:47:38.449Z,225.00
2023-05-19T09:48:38.401Z,236.25
2023-05-19T09:49:38.363Z,253.12
2023-05-19T09:50:38.455Z,303.75
2023-05-19T09:51:38.332Z,348.75
2023-05-19T09:52:38.386Z,382.50
2023-05-19T09:53:38.317Z,399.38
2023-05-19T09:54:38.324Z,393.75
2023-05-19T09:55:39.429Z,393.75
2023-05-19T09:56:38.550Z,399.38
2023-05-19T09:57:38.412Z,388.12
2023-05-19T09:58:38.279Z,354.38
2023-05-19T09:59:38.285Z,326.25
2023-05-19T10:00:38.255Z,320.62
2023-05-19T10:01:38.847Z,331.88
2023-05-19T10:02:38.266Z,331.88
2023-05-19T10:03:38.313Z,331.88
2023-05-19T10:04:38.335Z,337.50
2023-05-19T10:05:38.272Z,331.88
2023-05-19T10:06:38.262Z,315.00
2023-05-19T10:07:38.249Z,292.50
2023-05-19T10:08:38.165Z,264.38
2023-05-19T10:09:38.145Z,253.12
2023-05-19T10:10:38.148Z,230.62
2023-05-19T10:11:38.230Z,219.38
2023-05-19T10:12:38.129Z,213.75
2023-05-19T10:13:38.803Z,208.12
2023-05-19T10:14:38.114Z,202.50
2023-05-19T10:15:49.894Z,230.62
2023-05-19T10:16:39.165Z,270.00
2023-05-19T10:17:38.120Z,298.12
2023-05-19T10:18:39.906Z,315.00
2023-05-19T10:19:38.772Z,348.75
2023-05-19T10:20:38.059Z,399.38
2023-05-19T10:21:38.248Z,416.25
2023-05-19T10:22:38.211Z,388.12
2023-05-19T10:23:38.144Z,354.38
2023-05-19T10:24:38.011Z,337.50
2023-05-19T10:25:37.967Z,326.25
2023-05-19T10:26:37.956Z,343.12
2023-05-19T10:27:37.974Z,360.00
2023-05-19T10:28:37.993Z,354.38
2023-05-19T10:29:37.956Z,320.62
2023-05-19T10:30:37.939Z,303.75
2023-05-19T10:31:37.932Z,281.25
2023-05-19T10:32:38.086Z,258.75
2023-05-19T10:33:37.969Z,219.38
2023-05-19T10:34:37.929Z,191.25
2023-05-19T10:35:38.242Z,185.62
2023-05-19T10:36:37.905Z,219.38
2023-05-19T10:37:37.849Z,258.75
2023-05-19T10:38:37.873Z,264.38
2023-05-19T10:39:37.945Z,253.12
2023-05-19T10:40:37.908Z,241.88
2023-05-19T10:41:37.806Z,236.25
2023-05-19T10:42:37.796Z,253.12
2023-05-19T10:43:37.781Z,275.62
2023-05-19T10:44:37.829Z,292.50
2023-05-19T10:45:38.281Z,309.38
2023-05-19T10:46:37.827Z,320.62
2023-05-19T10:47:37.828Z,343.12
2023-05-19T10:48:37.742Z,376.88
2023-05-19T10:49:37.744Z,421.88
2023-05-19T10:50:37.776Z,472.50
2023-05-19T10:51:37.741Z,511.88
2023-05-19T10:52:37.772Z,506.25
2023-05-19T10:53:37.698Z,466.88
2023-05-19T10:54:37.868Z,433.12
2023-05-19T10:55:37.676Z,416.25
2023-05-19T10:56:37.766Z,382.50
2023-05-19T10:57:37.732Z,354.38
2023-05-19T10:58:37.662Z,337.50
2023-05-19T10:59:37.875Z,315.00
2023-05-19T11:00:37.704Z,292.50
2023-05-19T11:01:37.834Z,275.62
2023-05-19T11:02:37.657Z,270.00
2023-05-19T11:03:37.659Z,275.62
2023-05-19T11:04:37.596Z,281.25
2023-05-19T11:05:37.651Z,292.50
2023-05-19T11:06:37.556Z,303.75
2023-05-19T11:07:37.549Z,320.62
2023-05-19T11:08:37.581Z,326.25
2023-05-19T11:09:40.580Z,320.62
2023-05-19T11:10:37.503Z,315.00
2023-05-19T11:11:37.546Z,309.38
2023-05-19T11:12:37.478Z,309.38
2023-05-19T11:13:37.613Z,320.62
2023-05-19T11:14:37.600Z,326.25
2023-05-19T11:15:37.524Z,331.88
2023-05-19T11:16:42.398Z,331.88
2023-05-19T11:17:37.486Z,337.50
2023-05-19T11:18:37.496Z,348.75
2023-05-19T11:19:38.262Z,365.62
2023-05-19T11:20:37.414Z,388.12
2023-05-19T11:21:37.427Z,410.62
2023-05-19T11:22:37.400Z,427.50
2023-05-19T11:23:37.378Z,438.75
2023-05-19T11:24:37.465Z,427.50
2023-05-19T11:25:37.358Z,421.88
2023-05-19T11:26:37.442Z,410.62
2023-05-19T11:27:37.358Z,393.75
2023-05-19T11:28:37.391Z,376.88
2023-05-19T11:29:37.423Z,376.88
2023-05-19T11:30:37.406Z,376.88
2023-05-19T11:31:37.381Z,371.25
2023-05-19T11:32:37.357Z,365.62
2023-05-19T11:33:37.322Z,371.25
2023-05-19T11:34:37.354Z,399.38
2023-05-19T11:35:37.485Z,416.25
2023-05-19T11:36:37.386Z,421.88
2023-05-19T11:37:37.213Z,416.25
2023-05-19T11:38:37.300Z,416.25
2023-05-19T11:39:37.198Z,427.50
2023-05-19T11:40:37.204Z,410.62
2023-05-19T11:41:37.301Z,365.62
2023-05-19T11:42:37.298Z,365.62
2023-05-19T11:43:37.193Z,399.38
2023-05-19T11:44:37.251Z,410.62
2023-05-19T11:45:37.289Z,393.75
2023-05-19T11:46:37.339Z,376.88
2023-05-19T11:47:51.698Z,376.88
2023-05-19T11:48:38.311Z,371.25
2023-05-19T11:49:37.215Z,393.75
2023-05-19T11:50:37.111Z,427.50
2023-05-19T11:51:37.125Z,483.75
2023-05-19T11:52:37.515Z,534.38
2023-05-19T11:53:37.122Z,568.12
2023-05-19T11:54:37.800Z,590.62
2023-05-19T11:55:37.038Z,607.50
2023-05-19T11:56:37.051Z,630.00
2023-05-19T11:57:37.006Z,646.88
2023-05-19T11:58:37.011Z,669.38
2023-05-19T11:59:36.980Z,675.00
2023-05-19T12:00:36.973Z,658.12
2023-05-19T12:01:36.953Z,624.38
2023-05-19T12:02:37.048Z,601.88
2023-05-19T12:03:37.235Z,579.38
2023-05-19T12:04:36.998Z,556.88
2023-05-19T12:05:40.850Z,523.12
2023-05-19T12:06:38.092Z,517.50
2023-05-19T12:07:36.963Z,523.12
2023-05-19T12:08:36.912Z,523.12
2023-05-19T12:09:36.902Z,528.75
2023-05-19T12:10:36.931Z,528.75
2023-05-19T12:11:36.864Z,534.38
2023-05-19T12:12:36.859Z,534.38
2023-05-19T12:13:37.858Z,534.38
2023-05-19T12:14:36.850Z,523.12
2023-05-19T12:15:36.912Z,528.75
2023-05-19T12:16:36.885Z,540.00
2023-05-19T12:17:36.826Z,562.50
2023-05-19T12:18:36.874Z,556.88
2023-05-19T12:19:36.779Z,534.38
2023-05-19T12:20:36.944Z,528.75
2023-05-19T12:21:36.820Z,534.38
2023-05-19T12:22:36.757Z,528.75
2023-05-19T12:23:37.775Z,506.25
2023-05-19T12:24:36.715Z,478.12
2023-05-19T12:25:36.998Z,461.25
2023-05-19T12:26:36.772Z,450.00
2023-05-19T12:27:36.782Z,444.38
2023-05-19T12:28:36.718Z,444.38
2023-05-19T12:29:36.685Z,450.00
2023-05-19T12:30:36.869Z,466.88
2023-05-19T12:31:36.678Z,478.12
2023-05-19T12:32:36.731Z,506.25
2023-05-19T12:33:36.710Z,534.38
2023-05-19T12:34:36.620Z,573.75
2023-05-19T12:35:36.612Z,618.75
2023-05-19T12:36:36.593Z,624.38
2023-05-19T12:37:36.642Z,630.00
2023-05-19T12:38:36.651Z,618.75
2023-05-19T12:39:36.708Z,624.38
2023-05-19T12:40:36.963Z,607.50
2023-05-19T12:41:37.323Z,590.62
2023-05-19T12:42:36.541Z,573.75
2023-05-19T12:43:37.334Z,556.88
2023-05-19T12:44:36.543Z,540.00
2023-05-19T12:45:36.629Z,523.12